Latest Weather Observations for Melville Water

IDW60801

Issued at 11:32 am WST Saturday 5 September 2015 (issued every 30 minutes, with the page automatically refreshed every 10 minutes)

About weather observations | Map of weather stations | Latest weather observations for WA | Other Formats
Station Details ID: 009091 Name: INNER DOLPHIN PYLON Lat: -31.99 Lon: 115.83 Height: 0.0 m
Data from the previous 72 hours. | See also: Recent months at Melville Water
Date/Time
WST
Temp
°C
App
Temp
°C
Dew
Point
Rel
Hum
%
Delta-T
°C
Wind Press
QNH
hPa
Press
MSL
hPa
Rain
since 9 am
mm
Dir
 
Spd
km/h
Gust
km/h
Spd
kts
Gust
kts
05/11:30am - - - - - SSW 20 28 11 15 - - -
05/11:12am - - - - - WSW 28 46 15 25 - - -
05/11:00am - - - - - SW 28 35 15 19 - - -
05/10:30am - - - - - SW 26 37 14 20 - - -
05/10:00am - - - - - SW 30 39 16 21 - - -
05/09:30am - - - - - WSW 26 32 14 17 - - -
05/09:00am - - - - - WSW 24 33 13 18 - - -
05/08:30am - - - - - WSW 20 28 11 15 - - -
05/08:00am - - - - - WSW 28 37 15 20 - - -
05/07:30am - - - - - WSW 20 37 11 20 - - -
05/07:00am - - - - - WSW 24 32 13 17 - - -
05/06:30am - - - - - WSW 20 30 11 16 - - -
05/06:00am - - - - - WSW 19 24 10 13 - - -
05/05:30am - - - - - WSW 19 24 10 13 - - -
05/05:00am - - - - - WSW 20 28 11 15 - - -
05/04:30am - - - - - WSW 22 26 12 14 - - -
05/04:00am - - - - - WSW 17 24 9 13 - - -
05/03:30am - - - - - WSW 19 24 10 13 - - -
05/03:00am - - - - - WSW 20 28 11 15 - - -
05/02:30am - - - - - WSW 20 32 11 17 - - -
05/02:00am - - - - - WSW 19 28 10 15 - - -
05/01:30am - - - - - WSW 13 19 7 10 - - -
05/01:00am - - - - - WSW 24 32 13 17 - - -
05/12:30am - - - - - NNW 6 7 3 4 - - -
05/12:00am - - - - - N 4 6 2 3 - - -
 
Date/Time
WST
Temp
°C
App
Temp
°C
Dew
Point
Rel
Hum
%
Delta-T
°C
Wind Press
QNH
hPa
Press
MSL
hPa
Rain
since 9 am
mm
Dir
 
Spd
km/h
Gust
km/h
Spd
kts
Gust
kts
04/11:30pm - - - - - NW 4 6 2 3 - - -
04/11:00pm - - - - - WNW 11 17 6 9 - - -
04/10:30pm - - - - - WSW 22 30 12 16 - - -
04/10:00pm - - - - - W 15 22 8 12 - - -
04/09:30pm - - - - - WNW 17 24 9 13 - - -
04/09:00pm - - - - - NW 22 30 12 16 - - -
04/08:30pm - - - - - NW 19 24 10 13 - - -
04/08:00pm - - - - - NNW 20 30 11 16 - - -
04/07:30pm - - - - - NNW 20 32 11 17 - - -
04/07:00pm - - - - - NW 20 30 11 16 - - -
04/06:30pm - - - - - NW 19 30 10 16 - - -
04/06:00pm - - - - - NNW 19 24 10 13 - - -
04/05:30pm - - - - - NW 19 30 10 16 - - -
04/05:00pm - - - - - NW 24 33 13 18 - - -
04/04:30pm - - - - - N 22 35 12 19 - - -
04/04:00pm - - - - - NNW 17 24 9 13 - - -
04/03:30pm - - - - - NNW 24 33 13 18 - - -
04/03:00pm - - - - - NW 20 32 11 17 - - -
04/02:30pm - - - - - NW 22 33 12 18 - - -
04/02:00pm - - - - - NW 22 30 12 16 - - -
04/01:30pm - - - - - NW 19 30 10 16 - - -
04/01:00pm - - - - - NW 20 32 11 17 - - -
04/12:30pm - - - - - NNW 20 30 11 16 - - -
04/12:00pm - - - - - NNW 24 35 13 19 - - -
04/11:30am - - - - - NW 19 30 10 16 - - -
04/11:00am - - - - - WNW 15 22 8 12 - - -
04/10:30am - - - - - W 13 24 7 13 - - -
04/10:00am - - - - - SE 9 9 5 5 - - -
04/09:30am - - - - - ENE 7 9 4 5 - - -
04/09:00am - - - - - ENE 9 11 5 6 - - -
04/08:30am - - - - - NE 9 11 5 6 - - -
04/08:00am - - - - - NE 11 15 6 8 - - -
04/07:30am - - - - - NNE 6 11 3 6 - - -
04/07:00am - - - - - NNE 7 9 4 5 - - -
04/06:30am - - - - - NE 9 13 5 7 - - -
04/06:00am - - - - - ENE 11 13 6 7 - - -
04/05:30am - - - - - NE 13 17 7 9 - - -
04/05:00am - - - - - E 9 11 5 6 - - -
04/04:30am - - - - - NE 4 6 2 3 - - -
04/04:00am - - - - - NE 2 6 1 3 - - -
04/03:30am - - - - - NW 4 6 2 3 - - -
04/03:00am - - - - - N 4 6 2 3 - - -
04/02:30am - - - - - NW 2 4 1 2 - - -
04/02:00am - - - - - ENE 6 6 3 3 - - -
04/01:30am - - - - - E 4 7 2 4 - - -
04/01:00am - - - - - ENE 2 4 1 2 - - -
04/12:30am - - - - - NE 6 7 3 4 - - -
04/12:00am - - - - - E 7 9 4 5 - - -
 
Date/Time
WST
Temp
°C
App
Temp
°C
Dew
Point
Rel
Hum
%
Delta-T
°C
Wind Press
QNH
hPa
Press
MSL
hPa
Rain
since 9 am
mm
Dir
 
Spd
km/h
Gust
km/h
Spd
kts
Gust
kts
03/11:30pm - - - - - E 4 6 2 3 - - -
03/11:00pm - - - - - SSE 6 7 3 4 - - -
03/10:30pm - - - - - SSE 6 6 3 3 - - -
03/10:00pm - - - - - WNW 4 4 2 2 - - -
03/09:30pm - - - - - W 2 4 1 2 - - -
03/09:00pm - - - - - SSW 4 6 2 3 - - -
03/08:30pm - - - - - S 4 6 2 3 - - -
03/08:00pm - - - - - SSE 4 6 2 3 - - -
03/07:30pm - - - - - SSW 7 9 4 5 - - -
03/07:00pm - - - - - SSW 9 11 5 6 - - -
03/06:30pm - - - - - SSW 11 11 6 6 - - -
03/06:00pm - - - - - SSW 13 17 7 9 - - -
03/05:30pm - - - - - SSW 17 20 9 11 - - -
03/05:00pm - - - - - SW 17 22 9 12 - - -
03/04:30pm - - - - - SSW 13 22 7 12 - - -
03/04:00pm - - - - - ENE 4 9 2 5 - - -
03/03:30pm - - - - - ENE 9 15 5 8 - - -
03/03:00pm - - - - - ENE 9 17 5 9 - - -
03/02:30pm - - - - - SE 2 6 1 3 - - -
03/02:00pm - - - - - ESE 6 11 3 6 - - -
03/01:30pm - - - - - ESE 11 15 6 8 - - -
03/01:00pm - - - - - E 9 19 5 10 - - -
03/12:30pm - - - - - ENE 13 19 7 10 - - -
03/12:00pm - - - - - ENE 19 24 10 13 - - -
03/11:30am - - - - - ENE 15 22 8 12 - - -
03/11:00am - - - - - ENE 19 24 10 13 - - -
03/10:30am - - - - - ENE 22 30 12 16 - - -
03/10:00am - - - - - E 22 28 12 15 - - -
03/09:30am - - - - - E 28 35 15 19 - - -
03/09:00am - - - - - E 32 43 17 23 - - -
03/08:30am - - - - - E 28 39 15 21 - - -
03/08:00am - - - - - ENE 20 32 11 17 - - -
03/07:30am - - - - - E 15 19 8 10 - - -
03/07:00am - - - - - E 17 20 9 11 - - -
03/06:30am - - - - - E 15 20 8 11 - - -
03/06:00am - - - - - E 13 17 7 9 - - -
03/05:30am - - - - - E 13 22 7 12 - - -
03/05:00am - - - - - E 13 17 7 9 - - -
03/04:30am - - - - - E 17 22 9 12 - - -
03/04:00am - - - - - E 13 17 7 9 - - -
03/03:30am - - - - - ESE 15 19 8 10 - - -
03/03:00am - - - - - ESE 15 20 8 11 - - -
03/02:30am - - - - - ESE 19 22 10 12 - - -
03/02:00am - - - - - ESE 20 24 11 13 - - -
03/01:30am - - - - - ESE 13 17 7 9 - - -
03/01:00am - - - - - SE 17 20 9 11 - - -
03/12:30am - - - - - SE 17 22 9 12 - - -
03/12:00am - - - - - SE 17 20 9 11 - - -
 
Date/Time
WST
Temp
°C
App
Temp
°C
Dew
Point
Rel
Hum
%
Delta-T
°C
Wind Press
QNH
hPa
Press
MSL
hPa
Rain
since 9 am
mm
Dir
 
Spd
km/h
Gust
km/h
Spd
kts
Gust
kts
02/11:30pm - - - - - SE 17 22 9 12 - - -
02/11:00pm - - - - - SE 17 20 9 11 - - -
02/10:30pm - - - - - SE 19 22 10 12 - - -
02/10:00pm - - - - - SE 13 19 7 10 - - -
02/09:30pm - - - - - SE 17 19 9 10 - - -
02/09:00pm - - - - - ESE 17 20 9 11 - - -
02/08:30pm - - - - - SE 15 19 8 10 - - -
02/08:00pm - - - - - ESE 17 19 9 10 - - -
02/07:30pm - - - - - ESE 15 19 8 10 - - -
02/07:00pm - - - - - ESE 20 26 11 14 - - -
02/06:30pm - - - - - ESE 19 22 10 12 - - -
02/06:00pm - - - - - SE 15 19 8 10 - - -
02/05:30pm - - - - - SE 17 20 9 11 - - -
02/05:00pm - - - - - ESE 15 19 8 10 - - -
02/04:30pm - - - - - ESE 17 22 9 12 - - -
02/04:00pm - - - - - ESE 20 24 11 13 - - -
02/03:30pm - - - - - ESE 19 30 10 16 - - -
02/03:00pm - - - - - ESE 15 20 8 11 - - -
02/02:30pm - - - - - ESE 15 22 8 12 - - -
02/02:00pm - - - - - ESE 17 22 9 12 - - -
02/01:30pm - - - - - ESE 17 30 9 16 - - -
02/01:00pm - - - - - ESE 15 22 8 12 - - -
02/12:30pm - - - - - SSE 17 22 9 12 - - -
02/12:00pm - - - - - E 17 22 9 12 - - -

Other Formats:

Comma delimited format used in spreadsheet applications
http://www.bom.gov.au/fwo/IDW60801/IDW60801.95620.axf

JavaScript Object Notation format (JSON) in row-major order
http://www.bom.gov.au/fwo/IDW60801/IDW60801.95620.json